createdAt,value
2019-05-14T00:03:57.163Z,17.14
2019-05-14T00:09:02.154Z,17.29
2019-05-14T00:14:07.462Z,17.90
2019-05-14T00:19:12.103Z,17.67
2019-05-14T00:24:16.846Z,17.87
2019-05-14T00:29:22.069Z,17.57
2019-05-14T00:34:26.844Z,16.63
2019-05-14T00:39:32.012Z,16.80
2019-05-14T00:44:50.815Z,17.54
2019-05-14T00:49:43.128Z,17.84
2019-05-14T00:54:47.770Z,18.17
2019-05-14T00:59:52.512Z,18.26
2019-05-14T01:04:57.064Z,17.43
2019-05-14T01:10:01.799Z,17.52
2019-05-14T01:15:10.739Z,17.75
2019-05-14T01:20:14.149Z,17.65
2019-05-14T01:25:18.890Z,17.52
2019-05-14T01:30:23.484Z,17.50
2019-05-14T01:35:28.059Z,16.96
2019-05-14T01:40:32.634Z,16.93
2019-05-14T01:45:37.355Z,17.00
2019-05-14T01:50:41.895Z,16.06
2019-05-14T01:55:46.735Z,16.65
2019-05-14T02:00:52.340Z,16.38
2019-05-14T02:05:57.349Z,16.38
2019-05-14T02:11:02.102Z,15.85
2019-05-14T02:16:06.851Z,16.22
2019-05-14T02:21:11.820Z,16.53
2019-05-14T02:26:16.636Z,16.53
2019-05-14T02:31:21.380Z,16.78
2019-05-14T02:36:26.007Z,16.17
2019-05-14T02:41:30.649Z,15.35
2019-05-14T02:46:35.297Z,15.30
2019-05-14T02:51:39.932Z,16.30
2019-05-14T02:56:49.370Z,16.78
2019-05-14T03:01:52.830Z,16.42
2019-05-14T03:06:59.216Z,16.69
2019-05-14T03:12:03.721Z,15.82
2019-05-14T03:17:10.511Z,15.99
2019-05-14T03:22:14.958Z,16.48
2019-05-14T03:27:19.907Z,16.72
2019-05-14T03:32:24.851Z,16.22
2019-05-14T03:37:31.065Z,16.37
2019-05-14T03:42:36.077Z,16.62
2019-05-14T03:47:40.732Z,16.64
2019-05-14T03:52:45.359Z,16.78
2019-05-14T03:57:50.299Z,17.21
2019-05-14T04:02:55.164Z,17.26
2019-05-14T04:08:00.255Z,17.30
2019-05-14T04:13:05.051Z,17.60
2019-05-14T04:18:10.934Z,17.53
2019-05-14T04:23:19.848Z,16.92
2019-05-14T04:28:24.519Z,17.07
2019-05-14T04:33:30.234Z,17.26
2019-05-14T04:38:35.524Z,17.58
2019-05-14T04:43:40.495Z,17.70
2019-05-14T04:48:50.034Z,17.57
2019-05-14T04:53:54.097Z,17.49
2019-05-14T04:58:59.787Z,17.64
2019-05-14T05:04:04.772Z,17.78
2019-05-14T05:09:09.782Z,16.72
2019-05-14T05:14:14.571Z,17.18
2019-05-14T05:19:19.755Z,16.92
2019-05-14T05:24:24.564Z,17.80
2019-05-14T05:29:29.311Z,18.12
2019-05-14T05:34:34.055Z,18.37
2019-05-14T05:39:38.866Z,18.14
2019-05-14T05:44:43.643Z,18.49
2019-05-14T05:49:48.802Z,17.90
2019-05-14T05:54:53.765Z,18.64
2019-05-14T05:59:58.833Z,18.26
2019-05-14T06:05:04.463Z,19.11
2019-05-14T06:10:09.308Z,18.87
2019-05-14T06:15:14.393Z,19.10
2019-05-14T06:20:19.539Z,19.55
2019-05-14T06:25:24.423Z,19.06
2019-05-14T06:30:32.485Z,19.55
2019-05-14T06:35:39.379Z,20.11
2019-05-14T06:40:43.538Z,20.52
2019-05-14T06:45:49.568Z,20.76
2019-05-14T06:50:54.528Z,20.82
2019-05-14T06:55:59.162Z,21.06
2019-05-14T07:01:03.914Z,21.21
2019-05-14T07:06:08.983Z,21.44
2019-05-14T07:11:14.530Z,21.76
2019-05-14T07:16:20.001Z,22.08
2019-05-14T07:21:25.140Z,22.00
2019-05-14T07:26:31.009Z,22.02
2019-05-14T07:31:38.294Z,21.58
2019-05-14T07:36:41.927Z,22.44
2019-05-14T07:41:48.338Z,22.47
2019-05-14T07:46:52.953Z,21.70
2019-05-14T07:51:58.748Z,22.58
2019-05-14T07:57:03.683Z,21.78
2019-05-14T08:02:09.394Z,21.50
2019-05-14T08:07:14.386Z,21.53
2019-05-14T08:12:19.350Z,20.16
2019-05-14T08:17:24.180Z,20.89
2019-05-14T08:22:29.199Z,21.37
2019-05-14T08:27:34.077Z,21.90
2019-05-14T08:32:39.154Z,21.93
2019-05-14T08:37:43.984Z,21.70
2019-05-14T08:42:49.029Z,21.92
2019-05-14T08:47:54.694Z,20.76
2019-05-14T08:52:59.437Z,21.96
2019-05-14T08:58:04.154Z,22.65
2019-05-14T09:03:08.826Z,23.30
2019-05-14T09:08:13.462Z,23.21
2019-05-14T09:13:18.633Z,23.73
2019-05-14T09:18:23.328Z,22.99
2019-05-14T09:23:28.613Z,23.17
2019-05-14T09:28:33.791Z,22.03
2019-05-14T09:33:39.135Z,23.24
2019-05-14T09:38:45.564Z,24.01
2019-05-14T09:43:50.358Z,23.28
2019-05-14T09:48:55.002Z,23.96
2019-05-14T09:53:59.754Z,23.30
2019-05-14T09:59:05.134Z,24.19
2019-05-14T10:04:10.391Z,23.86
2019-05-14T10:09:15.468Z,23.54
2019-05-14T10:14:21.997Z,23.97
2019-05-14T10:19:29.316Z,23.33
2019-05-14T10:24:33.227Z,23.36
2019-05-14T10:29:39.331Z,24.08
2019-05-14T10:34:44.761Z,24.11
2019-05-14T10:39:50.454Z,23.84
2019-05-14T10:44:55.429Z,24.12
2019-05-14T10:50:02.174Z,23.60
2019-05-14T10:55:08.060Z,23.25
2019-05-14T11:00:13.094Z,22.20
2019-05-14T11:05:18.837Z,22.31
2019-05-14T11:10:23.703Z,22.61
2019-05-14T11:15:28.589Z,22.16
2019-05-14T11:20:33.312Z,22.84
2019-05-14T11:25:39.570Z,23.04
2019-05-14T11:30:44.315Z,22.09
2019-05-14T11:35:49.063Z,21.78
2019-05-14T11:40:54.562Z,22.53
2019-05-14T11:45:59.535Z,22.08
2019-05-14T11:51:04.233Z,22.58
2019-05-14T11:56:10.491Z,21.99
2019-05-14T12:01:15.442Z,22.86
2019-05-14T12:06:20.185Z,22.69
2019-05-14T12:11:28.952Z,22.99
2019-05-14T12:16:33.262Z,23.18
2019-05-14T12:21:39.756Z,23.61
2019-05-14T12:26:44.278Z,23.04
2019-05-14T12:31:50.697Z,22.42
2019-05-14T12:36:55.408Z,22.66
2019-05-14T12:42:00.694Z,23.14
2019-05-14T12:47:05.244Z,23.18
2019-05-14T12:52:24.593Z,23.61
2019-05-14T12:57:18.782Z,22.94
2019-05-14T13:02:22.714Z,23.05
2019-05-14T13:07:27.345Z,23.37
2019-05-14T13:12:32.096Z,23.14
2019-05-14T13:17:38.897Z,22.91
2019-05-14T13:22:46.236Z,22.83
2019-05-14T13:27:50.343Z,23.22
2019-05-14T13:32:55.067Z,22.92
2019-05-14T13:38:00.834Z,23.07
2019-05-14T13:43:05.468Z,22.82
2019-05-14T13:48:10.223Z,22.55
2019-05-14T13:53:14.868Z,22.51
2019-05-14T13:58:20.850Z,22.43
2019-05-14T14:03:28.936Z,21.74
2019-05-14T14:08:32.481Z,21.74
2019-05-14T14:13:39.096Z,22.09
2019-05-14T14:18:43.395Z,22.59
2019-05-14T14:23:49.480Z,22.76
2019-05-14T14:28:54.385Z,22.25
2019-05-14T14:34:01.151Z,22.32
2019-05-14T14:39:09.478Z,21.96
2019-05-14T14:44:13.564Z,21.77
2019-05-14T14:49:20.227Z,21.34
2019-05-14T14:54:28.665Z,21.33
2019-05-14T14:59:32.917Z,21.77
2019-05-14T15:04:39.553Z,21.48
2019-05-14T15:09:44.142Z,21.87
2019-05-14T15:14:49.912Z,22.25
2019-05-14T15:19:54.760Z,22.78
2019-05-14T15:24:59.498Z,22.30
2019-05-14T15:30:08.078Z,22.55
2019-05-14T15:35:13.719Z,22.66
2019-05-14T15:40:22.480Z,22.18
2019-05-14T15:45:28.772Z,22.46
2019-05-14T15:50:34.995Z,22.55
2019-05-14T15:55:40.762Z,22.05
2019-05-14T16:00:45.577Z,22.31
2019-05-14T16:05:50.505Z,22.41
2019-05-14T16:11:00.130Z,22.70
2019-05-14T16:16:03.325Z,22.86
2019-05-14T16:21:10.494Z,22.48
2019-05-14T16:26:15.166Z,22.27
2019-05-14T16:31:19.911Z,22.56
2019-05-14T16:36:24.764Z,22.25
2019-05-14T16:41:29.511Z,22.22
2019-05-14T16:46:38.503Z,21.99
2019-05-14T16:51:42.978Z,22.08
2019-05-14T16:56:48.341Z,21.62
2019-05-14T17:01:54.460Z,22.00
2019-05-14T17:07:02.321Z,21.82
2019-05-14T17:12:08.505Z,21.24
2019-05-14T17:17:13.476Z,21.63
2019-05-14T17:22:28.602Z,21.72
2019-05-14T17:27:28.381Z,21.49
2019-05-14T17:32:32.606Z,20.89
2019-05-14T17:37:39.404Z,21.14
2019-05-14T17:42:43.733Z,21.16
2019-05-14T17:47:49.075Z,21.34
2019-05-14T17:52:56.395Z,20.84
2019-05-14T17:58:01.054Z,21.20
2019-05-14T18:03:05.877Z,20.64
2019-05-14T18:08:11.006Z,20.63
2019-05-14T18:13:18.030Z,20.85
2019-05-14T18:18:24.756Z,20.39
2019-05-14T18:23:29.978Z,20.65
2019-05-14T18:28:34.716Z,20.17
2019-05-14T18:33:40.145Z,20.60
2019-05-14T18:38:45.029Z,20.33
2019-05-14T18:43:49.653Z,20.23
2019-05-14T18:48:54.824Z,19.79
2019-05-14T18:53:59.837Z,19.97
2019-05-14T18:59:04.566Z,19.40
2019-05-14T19:04:09.392Z,19.23
2019-05-14T19:09:14.231Z,18.87
2019-05-14T19:14:19.193Z,18.95
2019-05-14T19:19:24.259Z,18.12
2019-05-14T19:24:29.160Z,18.81
2019-05-14T19:29:34.016Z,18.42
2019-05-14T19:34:38.741Z,18.77
2019-05-14T19:39:44.020Z,18.26
2019-05-14T19:44:48.871Z,18.18
2019-05-14T19:49:54.519Z,17.82
2019-05-14T19:54:59.182Z,18.09
2019-05-14T20:00:05.555Z,17.83
2019-05-14T20:05:10.536Z,17.94
2019-05-14T20:10:16.083Z,17.53
2019-05-14T20:15:21.926Z,17.66
2019-05-14T20:20:28.836Z,16.23
2019-05-14T20:25:35.422Z,17.58
2019-05-14T20:30:40.938Z,17.55
2019-05-14T20:35:47.907Z,17.63
2019-05-14T20:40:52.594Z,16.22
2019-05-14T20:45:59.408Z,17.30
2019-05-14T20:51:03.614Z,17.34
2019-05-14T20:56:08.521Z,16.87
2019-05-14T21:01:14.228Z,16.93
2019-05-14T21:06:20.589Z,17.21
2019-05-14T21:11:25.253Z,16.82
2019-05-14T21:16:29.995Z,16.54
2019-05-14T21:21:34.738Z,16.95
2019-05-14T21:26:40.189Z,16.23
2019-05-14T21:31:45.148Z,16.90
2019-05-14T21:36:50.775Z,15.31
2019-05-14T21:41:55.558Z,16.26
2019-05-14T21:47:01.214Z,15.75
2019-05-14T21:52:05.967Z,15.28
2019-05-14T21:57:11.836Z,15.88
2019-05-14T22:02:24.321Z,15.64
2019-05-14T22:07:23.053Z,16.03
2019-05-14T22:12:28.262Z,15.94
2019-05-14T22:17:33.165Z,15.91
2019-05-14T22:22:39.547Z,15.60
2019-05-14T22:27:44.608Z,15.67
2019-05-14T22:32:50.372Z,15.45
2019-05-14T22:37:55.107Z,15.76
2019-05-14T22:43:00.398Z,15.23
2019-05-14T22:48:05.315Z,15.23
2019-05-14T22:53:09.950Z,15.22
2019-05-14T22:58:25.306Z,16.13
2019-05-14T23:03:21.230Z,16.49
2019-05-14T23:08:26.117Z,15.98
2019-05-14T23:13:31.896Z,16.75
2019-05-14T23:18:37.953Z,16.34
2019-05-14T23:23:42.811Z,16.21
2019-05-14T23:28:49.182Z,16.48
2019-05-14T23:33:53.732Z,16.86
2019-05-14T23:38:59.131Z,16.72
2019-05-14T23:44:04.042Z,16.91
2019-05-14T23:49:09.028Z,16.42
2019-05-14T23:54:14.984Z,16.95
2019-05-14T23:59:19.591Z,16.78
